Terminal Aerodrome Forecast
Issued by NWS

Home | Current Version | Previous Version | Text Only | Print | Product List | Glossary On
Versions: 1 2 3 4 5 6 7 8 9 10 11 12 13 14 15 16
000
FTUS43 KILX 261727 AAC
TAFBMI
TAF AMD
KBMI 261727Z 2617/2718 23014KT P6SM OVC030
     FM262200 22011KT 6SM SHRA VCTS OVC030CB
     FM270200 25008KT 4SM SHRA VCTS OVC025CB
     FM270400 27007KT 4SM SHRA OVC020
     FM270900 27011KT P6SM VCSH OVC008
     FM271600 26013KT P6SM BKN020=

USA.gov is the U.S. government's official web portal to all federal, state and local government web resources and services.